Streamwood, Illinois
Current Conditions -  °F | °C
As of 8:52 AM on Friday 19 Dec 2014 (Local Time) from KDPA Reporting Station
Overcast Overcast  
Wind Chill: 23°   Ceiling: 2400
Heat Index: 29°   Visibility: 8mi
Dew Point: 22°   Wind: 6mph
Humidity: 75%   Direction: 20°NNE
Pressure: 30.29"   Gusts: NA
Location:  42.01°N, 88.17°W
Report Text: KDPA 191452Z 02005KT 8SM OVC024 M02/M06 A3029 RMK AO2 SLP268 T10171056 51009
Loading
Personal Weather Stations






























Interactive Weather Map New forecast layout! Learn more

10-Day Weather Forecast

Advertisements
Track Severe Weather on mobile